sensor_id;sensor_type;location;lat;lon;timestamp;temperature;humidity
66013;DHT22;52783;50.502;8.190;2022-12-11T00:01:13;-1.40;99.90
66013;DHT22;52783;50.502;8.190;2022-12-11T00:03:39;-1.50;99.90
66013;DHT22;52783;50.502;8.190;2022-12-11T00:06:07;-1.50;99.90
66013;DHT22;52783;50.502;8.190;2022-12-11T00:08:33;-1.50;99.90
66013;DHT22;52783;50.502;8.190;2022-12-11T00:10:58;-1.50;99.90
66013;DHT22;52783;50.502;8.190;2022-12-11T00:13:24;-1.40;99.90
66013;DHT22;52783;50.502;8.190;2022-12-11T00:15:49;-1.30;99.90
66013;DHT22;52783;50.502;8.190;2022-12-11T00:18:15;-1.30;99.90
66013;DHT22;52783;50.502;8.190;2022-12-11T00:20:41;-1.20;99.90
66013;DHT22;52783;50.502;8.190;2022-12-11T00:23:06;-1.20;99.90
66013;DHT22;52783;50.502;8.190;2022-12-11T00:25:32;-1.30;99.90
66013;DHT22;52783;50.502;8.190;2022-12-11T00:27:58;-1.30;99.90
66013;DHT22;52783;50.502;8.190;2022-12-11T00:30:23;-1.30;99.90
66013;DHT22;52783;50.502;8.190;2022-12-11T00:32:52;-1.40;99.90
66013;DHT22;52783;50.502;8.190;2022-12-11T00:35:18;-1.30;99.90
66013;DHT22;52783;50.502;8.190;2022-12-11T00:37:43;-1.20;99.90
66013;DHT22;52783;50.502;8.190;2022-12-11T00:40:09;-1.30;99.90
66013;DHT22;52783;50.502;8.190;2022-12-11T00:42:35;-1.30;99.90
66013;DHT22;52783;50.502;8.190;2022-12-11T00:45:01;-1.40;99.90
66013;DHT22;52783;50.502;8.190;2022-12-11T00:47:26;-1.30;99.90
66013;DHT22;52783;50.502;8.190;2022-12-11T00:49:52;-1.20;99.90
66013;DHT22;52783;50.502;8.190;2022-12-11T00:52:17;-1.20;99.90
66013;DHT22;52783;50.502;8.190;2022-12-11T00:55:11;-1.10;99.90
66013;DHT22;52783;50.502;8.190;2022-12-11T00:57:44;-1.10;99.90
66013;DHT22;52783;50.502;8.190;2022-12-11T01:00:21;-1.10;99.90
66013;DHT22;52783;50.502;8.190;2022-12-11T01:02:48;-1.20;99.90
66013;DHT22;52783;50.502;8.190;2022-12-11T01:05:14;-1.10;99.90
66013;DHT22;52783;50.502;8.190;2022-12-11T01:07:40;-1.10;99.90
66013;DHT22;52783;50.502;8.190;2022-12-11T01:10:05;-1.10;99.90
66013;DHT22;52783;50.502;8.190;2022-12-11T01:12:58;-1.10;99.90
66013;DHT22;52783;50.502;8.190;2022-12-11T01:15:26;-1.10;99.90
66013;DHT22;52783;50.502;8.190;2022-12-11T01:17:52;-1.10;99.90
66013;DHT22;52783;50.502;8.190;2022-12-11T01:20:19;-1.00;99.90
66013;DHT22;52783;50.502;8.190;2022-12-11T01:22:45;-1.00;99.90
66013;DHT22;52783;50.502;8.190;2022-12-11T01:25:11;-1.10;99.90
66013;DHT22;52783;50.502;8.190;2022-12-11T01:27:37;-1.10;99.90
66013;DHT22;52783;50.502;8.190;2022-12-11T01:30:05;-1.00;99.90
66013;DHT22;52783;50.502;8.190;2022-12-11T01:32:33;-1.10;99.90
66013;DHT22;52783;50.502;8.190;2022-12-11T01:34:59;-1.10;99.90
66013;DHT22;52783;50.502;8.190;2022-12-11T01:37:25;-1.20;99.90
66013;DHT22;52783;50.502;8.190;2022-12-11T01:39:50;-1.20;99.90
66013;DHT22;52783;50.502;8.190;2022-12-11T01:42:18;-1.20;99.90
66013;DHT22;52783;50.502;8.190;2022-12-11T01:47:13;-1.20;99.90
66013;DHT22;52783;50.502;8.190;2022-12-11T01:49:40;-1.20;99.90
66013;DHT22;52783;50.502;8.190;2022-12-11T01:52:13;-1.10;99.90
66013;DHT22;52783;50.502;8.190;2022-12-11T01:54:41;-1.00;99.90
66013;DHT22;52783;50.502;8.190;2022-12-11T01:57:08;-1.00;99.90
66013;DHT22;52783;50.502;8.190;2022-12-11T01:59:37;-1.00;99.90
66013;DHT22;52783;50.502;8.190;2022-12-11T02:02:08;-0.90;99.90
66013;DHT22;52783;50.502;8.190;2022-12-11T02:04:37;-1.00;99.90
66013;DHT22;52783;50.502;8.190;2022-12-11T02:07:03;-1.10;99.90
66013;DHT22;52783;50.502;8.190;2022-12-11T02:09:34;-1.10;99.90
66013;DHT22;52783;50.502;8.190;2022-12-11T02:12:25;-1.10;99.90
66013;DHT22;52783;50.502;8.190;2022-12-11T02:17:40;-1.10;99.90
66013;DHT22;52783;50.502;8.190;2022-12-11T02:20:26;-1.10;99.90
66013;DHT22;52783;50.502;8.190;2022-12-11T02:28:57;-1.00;99.90
66013;DHT22;52783;50.502;8.190;2022-12-11T02:31:31;-1.00;99.90
66013;DHT22;52783;50.502;8.190;2022-12-11T02:34:04;-1.00;99.90
66013;DHT22;52783;50.502;8.190;2022-12-11T02:36:35;-1.00;99.90
66013;DHT22;52783;50.502;8.190;2022-12-11T02:39:03;-0.90;99.90
66013;DHT22;52783;50.502;8.190;2022-12-11T02:41:31;-0.90;99.90
66013;DHT22;52783;50.502;8.190;2022-12-11T02:44:00;-1.00;99.90
66013;DHT22;52783;50.502;8.190;2022-12-11T02:46:27;-1.20;99.90
66013;DHT22;52783;50.502;8.190;2022-12-11T02:48:54;-1.00;99.90
66013;DHT22;52783;50.502;8.190;2022-12-11T02:51:28;-1.20;99.90
66013;DHT22;52783;50.502;8.190;2022-12-11T02:53:57;-1.20;99.90
66013;DHT22;52783;50.502;8.190;2022-12-11T02:56:32;-1.20;99.90
66013;DHT22;52783;50.502;8.190;2022-12-11T02:59:11;-1.20;99.90
66013;DHT22;52783;50.502;8.190;2022-12-11T03:01:38;-1.00;99.90
66013;DHT22;52783;50.502;8.190;2022-12-11T03:04:04;-1.00;99.90
66013;DHT22;52783;50.502;8.190;2022-12-11T03:06:40;-1.10;99.90
66013;DHT22;52783;50.502;8.190;2022-12-11T03:09:07;-1.10;99.90
66013;DHT22;52783;50.502;8.190;2022-12-11T03:11:33;-1.00;99.90
66013;DHT22;52783;50.502;8.190;2022-12-11T03:13:59;-1.00;99.90
66013;DHT22;52783;50.502;8.190;2022-12-11T03:19:15;-1.10;99.90
66013;DHT22;52783;50.502;8.190;2022-12-11T03:22:07;-0.90;99.90
66013;DHT22;52783;50.502;8.190;2022-12-11T03:24:43;-0.90;99.90
66013;DHT22;52783;50.502;8.190;2022-12-11T03:27:21;-0.90;99.90
66013;DHT22;52783;50.502;8.190;2022-12-11T03:30:07;-0.90;99.90
66013;DHT22;52783;50.502;8.190;2022-12-11T03:32:39;-0.90;99.90
66013;DHT22;52783;50.502;8.190;2022-12-11T03:35:14;-0.90;99.90
66013;DHT22;52783;50.502;8.190;2022-12-11T03:37:43;-1.00;99.90
66013;DHT22;52783;50.502;8.190;2022-12-11T03:43:33;-0.90;99.90
66013;DHT22;52783;50.502;8.190;2022-12-11T03:46:00;-1.20;99.90
66013;DHT22;52783;50.502;8.190;2022-12-11T03:48:29;-1.20;99.90
66013;DHT22;52783;50.502;8.190;2022-12-11T03:50:58;-1.10;99.90
66013;DHT22;52783;50.502;8.190;2022-12-11T03:53:26;-1.00;99.90
66013;DHT22;52783;50.502;8.190;2022-12-11T03:55:53;-0.90;99.90
66013;DHT22;52783;50.502;8.190;2022-12-11T03:58:21;-1.10;99.90
66013;DHT22;52783;50.502;8.190;2022-12-11T04:00:46;-1.20;99.90
66013;DHT22;52783;50.502;8.190;2022-12-11T04:03:12;-1.20;99.90
66013;DHT22;52783;50.502;8.190;2022-12-11T04:05:42;-1.20;99.90
66013;DHT22;52783;50.502;8.190;2022-12-11T04:08:08;-1.20;99.90
66013;DHT22;52783;50.502;8.190;2022-12-11T04:10:33;-1.20;99.90
66013;DHT22;52783;50.502;8.190;2022-12-11T04:12:59;-1.10;99.90
66013;DHT22;52783;50.502;8.190;2022-12-11T04:15:24;-0.90;99.90
66013;DHT22;52783;50.502;8.190;2022-12-11T04:17:50;-0.90;99.90
66013;DHT22;52783;50.502;8.190;2022-12-11T04:20:34;-0.90;99.90
66013;DHT22;52783;50.502;8.190;2022-12-11T04:23:19;-0.90;99.90
66013;DHT22;52783;50.502;8.190;2022-12-11T04:26:15;-1.00;99.90
66013;DHT22;52783;50.502;8.190;2022-12-11T04:28:41;-0.90;99.90
66013;DHT22;52783;50.502;8.190;2022-12-11T04:31:12;-1.00;99.90
66013;DHT22;52783;50.502;8.190;2022-12-11T04:33:38;-0.80;99.90
66013;DHT22;52783;50.502;8.190;2022-12-11T04:36:05;-0.80;99.90
66013;DHT22;52783;50.502;8.190;2022-12-11T04:38:30;-0.90;99.90
66013;DHT22;52783;50.502;8.190;2022-12-11T04:41:02;-0.80;99.90
66013;DHT22;52783;50.502;8.190;2022-12-11T04:43:29;-0.80;99.90
66013;DHT22;52783;50.502;8.190;2022-12-11T04:46:15;-0.80;99.90
66013;DHT22;52783;50.502;8.190;2022-12-11T04:48:41;-0.80;99.90
66013;DHT22;52783;50.502;8.190;2022-12-11T04:51:07;-0.70;99.90
66013;DHT22;52783;50.502;8.190;2022-12-11T04:53:34;-0.80;99.90
66013;DHT22;52783;50.502;8.190;2022-12-11T04:56:00;-0.90;99.90
66013;DHT22;52783;50.502;8.190;2022-12-11T04:58:29;-1.00;99.90
66013;DHT22;52783;50.502;8.190;2022-12-11T05:00:54;-0.90;99.90
66013;DHT22;52783;50.502;8.190;2022-12-11T05:03:20;-1.00;99.90
66013;DHT22;52783;50.502;8.190;2022-12-11T05:05:48;-0.80;99.90
66013;DHT22;52783;50.502;8.190;2022-12-11T05:08:13;-0.80;99.90
66013;DHT22;52783;50.502;8.190;2022-12-11T05:10:39;-0.90;99.90
66013;DHT22;52783;50.502;8.190;2022-12-11T05:13:04;-0.80;99.90
66013;DHT22;52783;50.502;8.190;2022-12-11T05:15:30;-0.90;99.90
66013;DHT22;52783;50.502;8.190;2022-12-11T05:17:55;-0.70;99.90
66013;DHT22;52783;50.502;8.190;2022-12-11T05:20:21;-0.70;99.90
66013;DHT22;52783;50.502;8.190;2022-12-11T05:22:46;-0.70;99.90
66013;DHT22;52783;50.502;8.190;2022-12-11T05:25:12;-0.60;99.90
66013;DHT22;52783;50.502;8.190;2022-12-11T05:27:37;-0.70;99.90
66013;DHT22;52783;50.502;8.190;2022-12-11T05:30:04;-0.70;99.90
66013;DHT22;52783;50.502;8.190;2022-12-11T05:32:29;-0.70;99.90
66013;DHT22;52783;50.502;8.190;2022-12-11T05:34:55;-0.70;99.90
66013;DHT22;52783;50.502;8.190;2022-12-11T05:37:20;-0.60;99.90
66013;DHT22;52783;50.502;8.190;2022-12-11T05:39:46;-0.60;99.90
66013;DHT22;52783;50.502;8.190;2022-12-11T05:42:12;-0.60;99.90
66013;DHT22;52783;50.502;8.190;2022-12-11T05:44:37;-0.90;99.90
66013;DHT22;52783;50.502;8.190;2022-12-11T05:47:03;-0.70;99.90
66013;DHT22;52783;50.502;8.190;2022-12-11T05:49:28;-0.70;99.90
66013;DHT22;52783;50.502;8.190;2022-12-11T05:51:54;-0.60;99.90
66013;DHT22;52783;50.502;8.190;2022-12-11T05:54:19;-0.70;99.90
66013;DHT22;52783;50.502;8.190;2022-12-11T05:56:45;-0.70;99.90
66013;DHT22;52783;50.502;8.190;2022-12-11T05:59:13;-0.70;99.90
66013;DHT22;52783;50.502;8.190;2022-12-11T06:01:41;-0.60;99.90
66013;DHT22;52783;50.502;8.190;2022-12-11T06:04:08;-0.90;99.90
66013;DHT22;52783;50.502;8.190;2022-12-11T06:06:34;-0.80;99.90
66013;DHT22;52783;50.502;8.190;2022-12-11T06:09:00;-0.70;99.90
66013;DHT22;52783;50.502;8.190;2022-12-11T06:11:27;-0.70;99.90
66013;DHT22;52783;50.502;8.190;2022-12-11T06:13:54;-0.60;99.90
66013;DHT22;52783;50.502;8.190;2022-12-11T06:16:20;-0.60;99.90
66013;DHT22;52783;50.502;8.190;2022-12-11T06:18:46;-0.60;99.90
66013;DHT22;52783;50.502;8.190;2022-12-11T06:21:22;-0.60;99.90
66013;DHT22;52783;50.502;8.190;2022-12-11T06:23:50;-0.60;99.90
66013;DHT22;52783;50.502;8.190;2022-12-11T06:26:16;-0.60;99.90
66013;DHT22;52783;50.502;8.190;2022-12-11T06:28:43;-0.60;99.90
66013;DHT22;52783;50.502;8.190;2022-12-11T06:31:09;-0.60;99.90
66013;DHT22;52783;50.502;8.190;2022-12-11T06:33:35;-0.60;99.90
66013;DHT22;52783;50.502;8.190;2022-12-11T06:36:05;-0.60;99.90
66013;DHT22;52783;50.502;8.190;2022-12-11T06:38:31;-0.60;99.90
66013;DHT22;52783;50.502;8.190;2022-12-11T06:40:59;-0.60;99.90
66013;DHT22;52783;50.502;8.190;2022-12-11T06:43:24;-0.70;99.90
66013;DHT22;52783;50.502;8.190;2022-12-11T06:45:50;-0.60;99.90
66013;DHT22;52783;50.502;8.190;2022-12-11T06:48:16;-0.60;99.90
66013;DHT22;52783;50.502;8.190;2022-12-11T06:50:42;-0.50;99.90
66013;DHT22;52783;50.502;8.190;2022-12-11T06:53:09;-0.60;99.90
66013;DHT22;52783;50.502;8.190;2022-12-11T06:55:35;-0.50;99.90
66013;DHT22;52783;50.502;8.190;2022-12-11T06:58:01;-0.40;99.90
66013;DHT22;52783;50.502;8.190;2022-12-11T07:00:26;-0.60;99.90
66013;DHT22;52783;50.502;8.190;2022-12-11T07:02:52;-0.50;99.90
66013;DHT22;52783;50.502;8.190;2022-12-11T07:05:18;-0.50;99.90
66013;DHT22;52783;50.502;8.190;2022-12-11T07:07:43;-0.50;99.90
66013;DHT22;52783;50.502;8.190;2022-12-11T07:10:09;-0.50;99.90
66013;DHT22;52783;50.502;8.190;2022-12-11T07:12:35;-0.40;99.90
66013;DHT22;52783;50.502;8.190;2022-12-11T07:15:01;-0.40;99.90
66013;DHT22;52783;50.502;8.190;2022-12-11T07:17:28;-0.50;99.90
66013;DHT22;52783;50.502;8.190;2022-12-11T07:19:53;-0.40;99.90
66013;DHT22;52783;50.502;8.190;2022-12-11T07:22:19;-0.40;99.90
66013;DHT22;52783;50.502;8.190;2022-12-11T07:24:44;-0.40;99.90
66013;DHT22;52783;50.502;8.190;2022-12-11T07:27:10;-0.40;99.90
66013;DHT22;52783;50.502;8.190;2022-12-11T07:29:36;-0.40;99.90
66013;DHT22;52783;50.502;8.190;2022-12-11T07:32:01;-0.30;99.90
66013;DHT22;52783;50.502;8.190;2022-12-11T07:34:27;-0.30;99.90
66013;DHT22;52783;50.502;8.190;2022-12-11T07:36:52;-0.30;99.90
66013;DHT22;52783;50.502;8.190;2022-12-11T07:39:18;-0.30;99.90
66013;DHT22;52783;50.502;8.190;2022-12-11T07:41:43;-0.30;99.90
66013;DHT22;52783;50.502;8.190;2022-12-11T07:44:11;-0.20;99.90
66013;DHT22;52783;50.502;8.190;2022-12-11T07:46:37;-0.10;99.90
66013;DHT22;52783;50.502;8.190;2022-12-11T07:49:04;-0.30;99.90
66013;DHT22;52783;50.502;8.190;2022-12-11T07:51:32;-0.30;99.90
66013;DHT22;52783;50.502;8.190;2022-12-11T07:54:03;-0.20;99.90
66013;DHT22;52783;50.502;8.190;2022-12-11T07:56:30;-0.30;99.90
66013;DHT22;52783;50.502;8.190;2022-12-11T07:58:58;-0.30;99.90
66013;DHT22;52783;50.502;8.190;2022-12-11T08:01:26;-0.40;99.90
66013;DHT22;52783;50.502;8.190;2022-12-11T08:03:53;-0.50;99.90
66013;DHT22;52783;50.502;8.190;2022-12-11T08:06:24;-0.40;99.90
66013;DHT22;52783;50.502;8.190;2022-12-11T08:08:51;-0.40;99.90
66013;DHT22;52783;50.502;8.190;2022-12-11T08:11:17;-0.30;99.90
66013;DHT22;52783;50.502;8.190;2022-12-11T08:13:42;-0.40;99.90
66013;DHT22;52783;50.502;8.190;2022-12-11T08:16:11;-0.30;99.90
66013;DHT22;52783;50.502;8.190;2022-12-11T08:18:38;-0.20;99.90
66013;DHT22;52783;50.502;8.190;2022-12-11T08:21:21;-0.20;99.90
66013;DHT22;52783;50.502;8.190;2022-12-11T08:23:47;-0.30;99.90
66013;DHT22;52783;50.502;8.190;2022-12-11T08:26:25;-0.20;99.90
66013;DHT22;52783;50.502;8.190;2022-12-11T08:28:52;-0.10;99.90
66013;DHT22;52783;50.502;8.190;2022-12-11T08:31:18;-0.30;99.90
66013;DHT22;52783;50.502;8.190;2022-12-11T08:33:44;-0.10;99.90
66013;DHT22;52783;50.502;8.190;2022-12-11T08:36:13;-0.10;99.90
66013;DHT22;52783;50.502;8.190;2022-12-11T08:38:39;-0.10;99.90
66013;DHT22;52783;50.502;8.190;2022-12-11T08:41:09;0.00;99.90
66013;DHT22;52783;50.502;8.190;2022-12-11T08:43:35;0.00;99.90
66013;DHT22;52783;50.502;8.190;2022-12-11T08:46:01;-0.10;99.90
66013;DHT22;52783;50.502;8.190;2022-12-11T08:48:26;0.00;99.90
66013;DHT22;52783;50.502;8.190;2022-12-11T08:50:52;0.00;99.90
66013;DHT22;52783;50.502;8.190;2022-12-11T08:53:17;0.00;99.90
66013;DHT22;52783;50.502;8.190;2022-12-11T08:55:43;0.00;99.90
66013;DHT22;52783;50.502;8.190;2022-12-11T08:58:08;0.00;99.90
66013;DHT22;52783;50.502;8.190;2022-12-11T09:00:34;0.20;99.90
66013;DHT22;52783;50.502;8.190;2022-12-11T09:02:59;0.20;99.90
66013;DHT22;52783;50.502;8.190;2022-12-11T09:05:25;0.10;99.90
66013;DHT22;52783;50.502;8.190;2022-12-11T09:07:50;0.00;99.90
66013;DHT22;52783;50.502;8.190;2022-12-11T09:10:16;0.10;99.90
66013;DHT22;52783;50.502;8.190;2022-12-11T09:12:42;0.10;99.90
66013;DHT22;52783;50.502;8.190;2022-12-11T09:15:08;0.20;99.90
66013;DHT22;52783;50.502;8.190;2022-12-11T09:17:34;0.10;99.90
66013;DHT22;52783;50.502;8.190;2022-12-11T09:19:59;0.20;99.90
66013;DHT22;52783;50.502;8.190;2022-12-11T09:22:25;0.20;99.90
66013;DHT22;52783;50.502;8.190;2022-12-11T09:24:50;0.30;99.90
66013;DHT22;52783;50.502;8.190;2022-12-11T09:27:16;0.20;99.90
66013;DHT22;52783;50.502;8.190;2022-12-11T09:29:42;0.20;99.90
66013;DHT22;52783;50.502;8.190;2022-12-11T09:32:07;0.10;99.90
66013;DHT22;52783;50.502;8.190;2022-12-11T09:34:33;0.20;99.90
66013;DHT22;52783;50.502;8.190;2022-12-11T09:36:58;0.10;99.90
66013;DHT22;52783;50.502;8.190;2022-12-11T09:39:24;0.10;99.90
66013;DHT22;52783;50.502;8.190;2022-12-11T09:42:09;0.20;99.90
66013;DHT22;52783;50.502;8.190;2022-12-11T09:44:50;0.00;99.90
66013;DHT22;52783;50.502;8.190;2022-12-11T09:50:09;0.10;99.90
66013;DHT22;52783;50.502;8.190;2022-12-11T09:52:47;0.20;99.90
66013;DHT22;52783;50.502;8.190;2022-12-11T09:55:21;0.40;99.90
66013;DHT22;52783;50.502;8.190;2022-12-11T10:00:47;0.20;99.90
66013;DHT22;52783;50.502;8.190;2022-12-11T10:05:55;0.30;99.90
66013;DHT22;52783;50.502;8.190;2022-12-11T10:12:13;0.60;99.90
66013;DHT22;52783;50.502;8.190;2022-12-11T10:16:44;0.50;99.90
66013;DHT22;52783;50.502;8.190;2022-12-11T10:19:26;0.20;99.90
66013;DHT22;52783;50.502;8.190;2022-12-11T10:21:53;0.30;99.90
66013;DHT22;52783;50.502;8.190;2022-12-11T10:24:39;0.30;99.90
66013;DHT22;52783;50.502;8.190;2022-12-11T10:27:18;0.30;99.90
66013;DHT22;52783;50.502;8.190;2022-12-11T10:29:45;0.40;99.90
66013;DHT22;52783;50.502;8.190;2022-12-11T10:32:22;0.40;99.90
66013;DHT22;52783;50.502;8.190;2022-12-11T10:34:54;0.60;99.90
66013;DHT22;52783;50.502;8.190;2022-12-11T10:37:21;0.20;99.90
66013;DHT22;52783;50.502;8.190;2022-12-11T10:39:47;0.50;99.90
66013;DHT22;52783;50.502;8.190;2022-12-11T10:42:19;0.50;99.90
66013;DHT22;52783;50.502;8.190;2022-12-11T10:45:01;0.60;99.90
66013;DHT22;52783;50.502;8.190;2022-12-11T10:47:27;0.60;99.90
66013;DHT22;52783;50.502;8.190;2022-12-11T10:49:59;0.60;99.90
66013;DHT22;52783;50.502;8.190;2022-12-11T10:52:28;0.60;99.90
66013;DHT22;52783;50.502;8.190;2022-12-11T10:55:02;0.60;99.90
66013;DHT22;52783;50.502;8.190;2022-12-11T10:57:32;0.40;99.90
66013;DHT22;52783;50.502;8.190;2022-12-11T10:59:59;0.50;99.90
66013;DHT22;52783;50.502;8.190;2022-12-11T11:02:28;0.40;99.90
66013;DHT22;52783;50.502;8.190;2022-12-11T11:04:56;0.50;99.90
66013;DHT22;52783;50.502;8.190;2022-12-11T11:07:25;0.60;99.90
66013;DHT22;52783;50.502;8.190;2022-12-11T11:12:40;0.40;99.90
66013;DHT22;52783;50.502;8.190;2022-12-11T11:15:13;0.30;99.90
66013;DHT22;52783;50.502;8.190;2022-12-11T11:17:53;0.20;99.90
66013;DHT22;52783;50.502;8.190;2022-12-11T11:20:21;0.00;99.90
66013;DHT22;52783;50.502;8.190;2022-12-11T11:22:54;0.00;99.90
66013;DHT22;52783;50.502;8.190;2022-12-11T11:25:23;0.00;99.90
66013;DHT22;52783;50.502;8.190;2022-12-11T11:28:15;0.10;99.90
66013;DHT22;52783;50.502;8.190;2022-12-11T11:30:38;0.00;99.90
66013;DHT22;52783;50.502;8.190;2022-12-11T11:33:21;0.10;99.90
66013;DHT22;52783;50.502;8.190;2022-12-11T11:35:55;0.10;99.90
66013;DHT22;52783;50.502;8.190;2022-12-11T11:38:32;0.30;99.90
66013;DHT22;52783;50.502;8.190;2022-12-11T11:43:52;0.10;99.90
66013;DHT22;52783;50.502;8.190;2022-12-11T11:46:34;0.10;99.90
66013;DHT22;52783;50.502;8.190;2022-12-11T11:51:45;0.00;99.90
66013;DHT22;52783;50.502;8.190;2022-12-11T11:54:32;0.20;99.90
66013;DHT22;52783;50.502;8.190;2022-12-11T11:57:03;0.30;99.90
66013;DHT22;52783;50.502;8.190;2022-12-11T11:59:31;0.30;99.90
66013;DHT22;52783;50.502;8.190;2022-12-11T12:01:58;0.20;99.90
66013;DHT22;52783;50.502;8.190;2022-12-11T12:04:30;0.20;99.90
66013;DHT22;52783;50.502;8.190;2022-12-11T12:07:03;0.30;99.90
66013;DHT22;52783;50.502;8.190;2022-12-11T12:18:40;0.50;99.90
66013;DHT22;52783;50.502;8.190;2022-12-11T12:24:33;0.60;99.90
66013;DHT22;52783;50.502;8.190;2022-12-11T12:27:01;0.60;99.90
66013;DHT22;52783;50.502;8.190;2022-12-11T12:32:22;0.80;99.90
66013;DHT22;52783;50.502;8.190;2022-12-11T12:35:43;0.90;99.90
66013;DHT22;52783;50.502;8.190;2022-12-11T12:37:56;0.80;99.90
66013;DHT22;52783;50.502;8.190;2022-12-11T12:46:22;0.50;99.90
66013;DHT22;52783;50.502;8.190;2022-12-11T12:48:54;0.40;99.90
66013;DHT22;52783;50.502;8.190;2022-12-11T12:51:21;0.40;99.90
66013;DHT22;52783;50.502;8.190;2022-12-11T12:53:53;0.30;99.90
66013;DHT22;52783;50.502;8.190;2022-12-11T12:56:20;0.40;99.90
66013;DHT22;52783;50.502;8.190;2022-12-11T12:58:47;0.40;99.90
66013;DHT22;52783;50.502;8.190;2022-12-11T13:01:23;0.40;99.90
66013;DHT22;52783;50.502;8.190;2022-12-11T13:04:02;0.40;99.90
66013;DHT22;52783;50.502;8.190;2022-12-11T13:06:44;0.40;99.90
66013;DHT22;52783;50.502;8.190;2022-12-11T13:09:25;0.50;99.90
66013;DHT22;52783;50.502;8.190;2022-12-11T13:11:54;0.60;99.90
66013;DHT22;52783;50.502;8.190;2022-12-11T13:14:31;0.50;99.90
66013;DHT22;52783;50.502;8.190;2022-12-11T13:17:37;0.40;99.90
66013;DHT22;52783;50.502;8.190;2022-12-11T13:20:14;0.30;99.90
66013;DHT22;52783;50.502;8.190;2022-12-11T13:22:48;0.30;99.90
66013;DHT22;52783;50.502;8.190;2022-12-11T13:25:28;0.40;99.90
66013;DHT22;52783;50.502;8.190;2022-12-11T13:28:05;0.40;99.90
66013;DHT22;52783;50.502;8.190;2022-12-11T13:30:32;0.50;99.90
66013;DHT22;52783;50.502;8.190;2022-12-11T13:33:14;0.50;99.90
66013;DHT22;52783;50.502;8.190;2022-12-11T13:35:41;0.60;99.90
66013;DHT22;52783;50.502;8.190;2022-12-11T13:38:15;0.60;99.90
66013;DHT22;52783;50.502;8.190;2022-12-11T13:40:43;0.60;99.90
66013;DHT22;52783;50.502;8.190;2022-12-11T13:43:25;0.50;99.90
66013;DHT22;52783;50.502;8.190;2022-12-11T13:45:57;0.60;99.90
66013;DHT22;52783;50.502;8.190;2022-12-11T13:48:37;0.50;99.90
66013;DHT22;52783;50.502;8.190;2022-12-11T13:51:03;0.40;99.90
66013;DHT22;52783;50.502;8.190;2022-12-11T13:53:29;0.30;99.90
66013;DHT22;52783;50.502;8.190;2022-12-11T13:56:06;0.20;99.90
66013;DHT22;52783;50.502;8.190;2022-12-11T13:58:38;0.40;99.90
66013;DHT22;52783;50.502;8.190;2022-12-11T14:01:10;0.20;99.90
66013;DHT22;52783;50.502;8.190;2022-12-11T14:03:42;0.40;99.90
66013;DHT22;52783;50.502;8.190;2022-12-11T14:06:12;0.50;99.90
66013;DHT22;52783;50.502;8.190;2022-12-11T14:08:42;0.50;99.90
66013;DHT22;52783;50.502;8.190;2022-12-11T14:11:27;0.40;99.90
66013;DHT22;52783;50.502;8.190;2022-12-11T14:13:59;0.50;99.90
66013;DHT22;52783;50.502;8.190;2022-12-11T14:16:25;0.40;99.90
66013;DHT22;52783;50.502;8.190;2022-12-11T14:18:53;0.50;99.90
66013;DHT22;52783;50.502;8.190;2022-12-11T14:21:21;0.60;99.90
66013;DHT22;52783;50.502;8.190;2022-12-11T14:23:52;0.70;99.90
66013;DHT22;52783;50.502;8.190;2022-12-11T14:26:25;0.50;99.90
66013;DHT22;52783;50.502;8.190;2022-12-11T14:28:52;0.60;99.90
66013;DHT22;52783;50.502;8.190;2022-12-11T14:31:40;0.50;99.90
66013;DHT22;52783;50.502;8.190;2022-12-11T14:34:24;0.70;99.90
66013;DHT22;52783;50.502;8.190;2022-12-11T14:36:51;0.60;99.90
66013;DHT22;52783;50.502;8.190;2022-12-11T14:39:30;0.70;99.90
66013;DHT22;52783;50.502;8.190;2022-12-11T14:44:31;0.70;99.90
66013;DHT22;52783;50.502;8.190;2022-12-11T14:47:02;0.70;99.90
66013;DHT22;52783;50.502;8.190;2022-12-11T14:52:30;0.40;99.90
66013;DHT22;52783;50.502;8.190;2022-12-11T14:55:02;0.40;99.90
66013;DHT22;52783;50.502;8.190;2022-12-11T14:57:32;0.50;99.90
66013;DHT22;52783;50.502;8.190;2022-12-11T14:59:58;0.50;99.90
66013;DHT22;52783;50.502;8.190;2022-12-11T15:02:31;0.60;99.90
66013;DHT22;52783;50.502;8.190;2022-12-11T15:07:40;0.50;99.90
66013;DHT22;52783;50.502;8.190;2022-12-11T15:10:06;0.60;99.90
66013;DHT22;52783;50.502;8.190;2022-12-11T15:12:31;0.70;99.90
66013;DHT22;52783;50.502;8.190;2022-12-11T15:14:59;0.70;99.90
66013;DHT22;52783;50.502;8.190;2022-12-11T15:17:27;0.70;99.90
66013;DHT22;52783;50.502;8.190;2022-12-11T15:20:09;0.70;99.90
66013;DHT22;52783;50.502;8.190;2022-12-11T15:22:35;0.70;99.90
66013;DHT22;52783;50.502;8.190;2022-12-11T15:25:02;0.70;99.90
66013;DHT22;52783;50.502;8.190;2022-12-11T15:27:37;0.70;99.90
66013;DHT22;52783;50.502;8.190;2022-12-11T15:32:46;0.70;99.90
66013;DHT22;52783;50.502;8.190;2022-12-11T15:35:24;0.70;99.90
66013;DHT22;52783;50.502;8.190;2022-12-11T15:37:55;0.70;99.90
66013;DHT22;52783;50.502;8.190;2022-12-11T15:40:22;0.70;99.90
66013;DHT22;52783;50.502;8.190;2022-12-11T15:42:47;0.60;99.90
66013;DHT22;52783;50.502;8.190;2022-12-11T15:45:25;0.60;99.90
66013;DHT22;52783;50.502;8.190;2022-12-11T15:47:53;0.60;99.90
66013;DHT22;52783;50.502;8.190;2022-12-11T15:52:48;0.60;99.90
66013;DHT22;52783;50.502;8.190;2022-12-11T15:55:15;0.70;99.90
66013;DHT22;52783;50.502;8.190;2022-12-11T15:58:02;0.70;99.90
66013;DHT22;52783;50.502;8.190;2022-12-11T16:00:28;0.60;99.90
66013;DHT22;52783;50.502;8.190;2022-12-11T16:02:55;0.60;99.90
66013;DHT22;52783;50.502;8.190;2022-12-11T16:05:21;0.70;99.90
66013;DHT22;52783;50.502;8.190;2022-12-11T16:07:47;0.50;99.90
66013;DHT22;52783;50.502;8.190;2022-12-11T16:10:15;0.40;99.90
66013;DHT22;52783;50.502;8.190;2022-12-11T16:12:42;0.50;99.90
66013;DHT22;52783;50.502;8.190;2022-12-11T16:15:09;0.60;99.90
66013;DHT22;52783;50.502;8.190;2022-12-11T16:17:35;0.60;99.90
66013;DHT22;52783;50.502;8.190;2022-12-11T16:20:00;0.50;99.90
66013;DHT22;52783;50.502;8.190;2022-12-11T16:22:26;0.40;99.90
66013;DHT22;52783;50.502;8.190;2022-12-11T16:24:52;0.50;99.90
66013;DHT22;52783;50.502;8.190;2022-12-11T16:27:19;0.30;99.90
66013;DHT22;52783;50.502;8.190;2022-12-11T16:29:45;0.40;99.90
66013;DHT22;52783;50.502;8.190;2022-12-11T16:32:10;0.40;99.90
66013;DHT22;52783;50.502;8.190;2022-12-11T16:34:36;0.30;99.90
66013;DHT22;52783;50.502;8.190;2022-12-11T16:37:04;0.10;99.90
66013;DHT22;52783;50.502;8.190;2022-12-11T16:39:31;-0.10;99.90
66013;DHT22;52783;50.502;8.190;2022-12-11T16:41:56;-0.10;99.90
66013;DHT22;52783;50.502;8.190;2022-12-11T16:44:24;0.00;99.90
66013;DHT22;52783;50.502;8.190;2022-12-11T16:46:50;-0.20;99.90
66013;DHT22;52783;50.502;8.190;2022-12-11T16:49:17;-0.20;99.90
66013;DHT22;52783;50.502;8.190;2022-12-11T16:51:42;-0.20;99.90
66013;DHT22;52783;50.502;8.190;2022-12-11T16:54:09;-0.20;99.90
66013;DHT22;52783;50.502;8.190;2022-12-11T16:56:35;-0.20;99.90
66013;DHT22;52783;50.502;8.190;2022-12-11T16:59:01;-0.10;99.90
66013;DHT22;52783;50.502;8.190;2022-12-11T17:01:26;-0.10;99.90
66013;DHT22;52783;50.502;8.190;2022-12-11T17:03:52;-0.10;99.90
66013;DHT22;52783;50.502;8.190;2022-12-11T17:06:18;-0.20;99.90